Parowan, Utah
Current Conditions -  °F | °C
As of 1:53 AM on Monday 22 Dec 2014 (Local Time) from KCDC Reporting Station
Clear Clear  
Wind Chill:   Ceiling: Unl
Heat Index:   Visibility: 10mi
Dew Point:   Wind: 7mph
Humidity: 73%   Direction: 140°SE
Pressure: 30.07"   Gusts: NA
Location:  37.84°N, 112.83°W
Report Text: KCDC 220853Z AUTO 14006KT 10SM CLR 04/00 A3007 RMK AO2 SLP156 T00440000 56002
Loading
Personal Weather Stations






























Interactive Weather Map New forecast layout! Learn more

10-Day Weather Forecast

Advertisements
Track Severe Weather on mobile